createdAt,value
2023-03-11T00:00:03.059Z,1.80
2023-03-11T00:01:03.077Z,1.80
2023-03-11T00:02:03.158Z,1.80
2023-03-11T00:03:03.094Z,1.80
2023-03-11T00:04:03.042Z,1.80
2023-03-11T00:05:03.077Z,1.70
2023-03-11T00:06:03.156Z,1.70
2023-03-11T00:07:03.221Z,1.70
2023-03-11T00:08:03.203Z,1.70
2023-03-11T00:09:03.184Z,1.70
2023-03-11T00:10:03.243Z,1.70
2023-03-11T00:11:03.380Z,1.70
2023-03-11T00:12:03.322Z,1.70
2023-03-11T00:13:03.419Z,1.70
2023-03-11T00:14:03.499Z,1.70
2023-03-11T00:15:03.429Z,1.70
2023-03-11T00:16:03.514Z,1.70
2023-03-11T00:17:03.571Z,1.70
2023-03-11T00:18:03.442Z,1.60
2023-03-11T00:19:03.618Z,1.60
2023-03-11T00:20:03.507Z,1.60
2023-03-11T00:21:03.625Z,1.60
2023-03-11T00:22:02.613Z,1.60
2023-03-11T00:23:02.616Z,1.60
2023-03-11T00:24:02.694Z,1.60
2023-03-11T00:25:02.635Z,1.60
2023-03-11T00:26:02.668Z,1.60
2023-03-11T00:27:03.635Z,1.60
2023-03-11T00:28:02.697Z,1.50
2023-03-11T00:29:02.621Z,1.50
2023-03-11T00:30:02.648Z,1.50
2023-03-11T00:31:02.685Z,1.50
2023-03-11T00:32:02.731Z,1.50
2023-03-11T00:33:02.788Z,1.50
2023-03-11T00:34:02.792Z,1.40
2023-03-11T00:35:02.840Z,1.40
2023-03-11T00:36:02.930Z,1.40
2023-03-11T00:37:02.940Z,1.40
2023-03-11T00:38:03.003Z,1.40
2023-03-11T00:39:02.974Z,1.40
2023-03-11T00:40:03.014Z,1.40
2023-03-11T00:41:03.005Z,1.40
2023-03-11T00:42:02.982Z,1.40
2023-03-11T00:43:02.972Z,1.30
2023-03-11T00:44:02.980Z,1.30
2023-03-11T00:45:03.014Z,1.30
2023-03-11T00:46:03.022Z,1.30
2023-03-11T00:47:03.035Z,1.30
2023-03-11T00:48:02.991Z,1.30
2023-03-11T00:49:03.019Z,1.30
2023-03-11T00:50:03.146Z,1.30
2023-03-11T00:51:03.127Z,1.30
2023-03-11T00:52:03.146Z,1.30
2023-03-11T00:53:03.101Z,1.20
2023-03-11T00:54:03.233Z,1.20
2023-03-11T00:55:03.187Z,1.20
2023-03-11T00:56:03.146Z,1.20
2023-03-11T00:57:03.159Z,1.20
2023-03-11T00:58:03.107Z,1.20
2023-03-11T00:59:03.093Z,1.20
2023-03-11T01:00:03.081Z,1.20
2023-03-11T01:01:03.148Z,1.20
2023-03-11T01:02:03.128Z,1.20
2023-03-11T01:03:03.100Z,1.20
2023-03-11T01:04:03.109Z,1.20
2023-03-11T01:05:03.206Z,1.10
2023-03-11T01:06:03.175Z,1.10
2023-03-11T01:07:03.208Z,1.10
2023-03-11T01:08:03.361Z,1.10
2023-03-11T01:09:03.245Z,1.10
2023-03-11T01:10:03.509Z,1.10
2023-03-11T01:11:02.600Z,1.10
2023-03-11T01:12:03.624Z,1.10
2023-03-11T01:13:03.581Z,1.10
2023-03-11T01:14:02.741Z,1.10
2023-03-11T01:15:02.768Z,1.10
2023-03-11T01:16:02.915Z,1.10
2023-03-11T01:17:02.946Z,1.10
2023-03-11T01:18:02.887Z,1.10
2023-03-11T01:19:03.038Z,1.10
2023-03-11T01:20:02.994Z,1.10
2023-03-11T01:21:02.961Z,1.10
2023-03-11T01:22:03.099Z,1.10
2023-03-11T01:23:03.117Z,1.00
2023-03-11T01:24:03.195Z,1.10
2023-03-11T01:25:03.266Z,1.00
2023-03-11T01:26:03.300Z,1.00
2023-03-11T01:27:03.274Z,1.00
2023-03-11T01:28:03.298Z,1.00
2023-03-11T01:29:03.314Z,1.00
2023-03-11T01:30:03.269Z,1.00
2023-03-11T01:31:03.259Z,1.00
2023-03-11T01:32:03.334Z,1.00
2023-03-11T01:33:03.334Z,1.00
2023-03-11T01:34:03.371Z,1.00
2023-03-11T01:35:03.428Z,1.00
2023-03-11T01:36:03.469Z,1.00
2023-03-11T01:37:03.370Z,1.00
2023-03-11T01:38:03.491Z,1.00
2023-03-11T01:39:02.658Z,1.00
2023-03-11T01:40:02.647Z,1.00
2023-03-11T01:41:03.629Z,1.00
2023-03-11T01:42:03.583Z,1.00
2023-03-11T01:43:02.783Z,1.00
2023-03-11T01:44:02.669Z,1.00
2023-03-11T01:45:02.592Z,1.00
2023-03-11T01:46:02.712Z,1.00
2023-03-11T01:47:02.791Z,1.00
2023-03-11T01:48:02.782Z,1.00
2023-03-11T01:49:02.834Z,1.00
2023-03-11T01:50:02.903Z,1.00
2023-03-11T01:51:02.879Z,1.00
2023-03-11T01:52:02.905Z,1.00
2023-03-11T01:53:03.524Z,1.00
2023-03-11T01:54:03.606Z,1.00
2023-03-11T01:55:02.684Z,1.00
2023-03-11T01:56:02.753Z,0.90
2023-03-11T01:57:02.783Z,0.90
2023-03-11T01:58:02.751Z,1.00
2023-03-11T01:59:02.741Z,0.90
2023-03-11T02:00:02.830Z,0.90
2023-03-11T02:01:02.841Z,0.90
2023-03-11T02:02:02.817Z,0.90
2023-03-11T02:03:02.889Z,0.90
2023-03-11T02:04:02.820Z,1.00
2023-03-11T02:05:02.898Z,0.90
2023-03-11T02:06:02.991Z,1.00
2023-03-11T02:07:02.941Z,1.00
2023-03-11T02:08:02.958Z,0.90
2023-03-11T02:09:02.965Z,0.90
2023-03-11T02:10:03.019Z,1.00
2023-03-11T02:11:03.103Z,0.90
2023-03-11T02:12:03.261Z,1.00
2023-03-11T02:13:03.334Z,0.90
2023-03-11T02:14:03.246Z,1.00
2023-03-11T02:15:03.336Z,1.00
2023-03-11T02:16:03.417Z,1.00
2023-03-11T02:17:03.446Z,1.00
2023-03-11T02:18:03.366Z,1.00
2023-03-11T02:19:03.463Z,1.00
2023-03-11T02:20:03.534Z,0.90
2023-03-11T02:21:03.549Z,1.00
2023-03-11T02:22:02.652Z,1.00
2023-03-11T02:23:02.729Z,1.00
2023-03-11T02:24:02.776Z,0.90
2023-03-11T02:25:02.764Z,0.90
2023-03-11T02:26:02.730Z,0.90
2023-03-11T02:27:02.651Z,0.90
2023-03-11T02:28:02.684Z,1.00
2023-03-11T02:29:02.806Z,1.00
2023-03-11T02:30:02.723Z,1.00
2023-03-11T02:31:02.885Z,1.00
2023-03-11T02:32:02.925Z,1.00
2023-03-11T02:33:03.081Z,1.00
2023-03-11T02:34:03.178Z,1.00
2023-03-11T02:35:03.148Z,1.00
2023-03-11T02:36:03.288Z,1.00
2023-03-11T02:37:03.164Z,1.00
2023-03-11T02:38:03.138Z,1.00
2023-03-11T02:39:03.231Z,1.00
2023-03-11T02:40:03.243Z,1.00
2023-03-11T02:41:03.258Z,1.00
2023-03-11T02:42:03.204Z,1.00
2023-03-11T02:43:03.259Z,1.00
2023-03-11T02:44:03.322Z,1.00
2023-03-11T02:45:03.346Z,1.00
2023-03-11T02:46:03.384Z,1.00
2023-03-11T02:47:03.527Z,1.00
2023-03-11T02:48:03.357Z,1.00
2023-03-11T02:49:03.538Z,1.00
2023-03-11T02:50:03.465Z,1.00
2023-03-11T02:51:03.447Z,1.00
2023-03-11T02:52:03.424Z,1.00
2023-03-11T02:53:03.432Z,1.00
2023-03-11T02:54:03.447Z,1.00
2023-03-11T02:55:03.443Z,1.00
2023-03-11T02:56:03.457Z,1.00
2023-03-11T02:57:03.440Z,1.00
2023-03-11T02:58:03.583Z,0.90
2023-03-11T02:59:03.564Z,1.00
2023-03-11T03:00:03.607Z,1.00
2023-03-11T03:01:03.687Z,1.00
2023-03-11T03:02:03.572Z,1.00
2023-03-11T03:03:02.633Z,0.90
2023-03-11T03:04:02.678Z,1.00
2023-03-11T03:05:02.644Z,1.00
2023-03-11T03:06:02.721Z,1.00
2023-03-11T03:07:02.868Z,1.00
2023-03-11T03:08:02.842Z,1.00
2023-03-11T03:09:02.822Z,1.00
2023-03-11T03:10:02.736Z,1.00
2023-03-11T03:11:02.711Z,0.90
2023-03-11T03:12:02.800Z,1.00
2023-03-11T03:13:02.811Z,0.90
2023-03-11T03:14:02.746Z,1.00
2023-03-11T03:15:02.814Z,1.00
2023-03-11T03:16:02.976Z,0.90
2023-03-11T03:17:02.967Z,0.90
2023-03-11T03:18:02.868Z,0.90
2023-03-11T03:19:02.993Z,0.90
2023-03-11T03:20:02.953Z,0.90
2023-03-11T03:21:03.023Z,0.90
2023-03-11T03:22:03.042Z,0.90
2023-03-11T03:23:02.969Z,0.90
2023-03-11T03:24:02.997Z,0.90
2023-03-11T03:25:03.105Z,0.90
2023-03-11T03:26:03.045Z,0.90
2023-03-11T03:27:03.056Z,0.90
2023-03-11T03:28:03.067Z,1.00
2023-03-11T03:29:03.273Z,1.00
2023-03-11T03:30:03.173Z,0.90
2023-03-11T03:31:03.142Z,1.00
2023-03-11T03:32:03.211Z,1.00
2023-03-11T03:33:03.083Z,1.00
2023-03-11T03:34:03.222Z,1.00
2023-03-11T03:35:03.166Z,1.00
2023-03-11T03:36:03.217Z,1.00
2023-03-11T03:37:03.276Z,0.90
2023-03-11T03:38:03.201Z,0.90
2023-03-11T03:39:03.231Z,0.90
2023-03-11T03:40:03.316Z,0.90
2023-03-11T03:41:03.328Z,0.90
2023-03-11T03:42:03.199Z,0.90
2023-03-11T03:43:03.210Z,0.90
2023-03-11T03:44:03.357Z,0.90
2023-03-11T03:45:03.368Z,0.90
2023-03-11T03:46:03.418Z,0.90
2023-03-11T03:47:03.471Z,0.90
2023-03-11T03:48:03.515Z,0.90
2023-03-11T03:49:03.597Z,0.90
2023-03-11T03:50:03.592Z,0.80
2023-03-11T03:51:03.555Z,0.80
2023-03-11T03:52:03.522Z,0.90
2023-03-11T03:53:03.394Z,0.90
2023-03-11T03:54:03.387Z,0.80
2023-03-11T03:55:03.396Z,0.80
2023-03-11T03:56:03.647Z,0.80
2023-03-11T03:57:03.545Z,0.90
2023-03-11T03:58:02.641Z,0.80
2023-03-11T03:59:03.567Z,0.80
2023-03-11T04:00:03.559Z,0.80
2023-03-11T04:01:03.513Z,0.80
2023-03-11T04:02:03.544Z,0.80
2023-03-11T04:03:03.657Z,0.80
2023-03-11T04:04:03.531Z,0.80
2023-03-11T04:05:03.572Z,0.80
2023-03-11T04:06:03.577Z,0.80
2023-03-11T04:07:03.665Z,0.80
2023-03-11T04:08:03.561Z,0.80
2023-03-11T04:09:03.573Z,0.80
2023-03-11T04:10:02.726Z,0.80
2023-03-11T04:11:02.809Z,0.80
2023-03-11T04:12:02.682Z,0.80
2023-03-11T04:13:02.763Z,0.80
2023-03-11T04:14:02.775Z,0.80
2023-03-11T04:15:02.816Z,0.80
2023-03-11T04:16:02.917Z,0.80
2023-03-11T04:17:02.986Z,0.80
2023-03-11T04:18:02.961Z,0.70
2023-03-11T04:19:02.993Z,0.70
2023-03-11T04:20:02.917Z,0.70
2023-03-11T04:21:02.927Z,0.70
2023-03-11T04:22:02.789Z,0.70
2023-03-11T04:23:02.925Z,0.70
2023-03-11T04:24:02.870Z,0.70
2023-03-11T04:25:02.855Z,0.70
2023-03-11T04:26:02.832Z,0.70
2023-03-11T04:27:02.802Z,0.70
2023-03-11T04:28:02.875Z,0.70
2023-03-11T04:29:02.854Z,0.60
2023-03-11T04:30:02.837Z,0.70
2023-03-11T04:31:03.054Z,0.70
2023-03-11T04:32:02.963Z,0.70
2023-03-11T04:33:02.982Z,0.70
2023-03-11T04:34:03.021Z,0.70
2023-03-11T04:35:03.009Z,0.70
2023-03-11T04:36:03.024Z,0.70
2023-03-11T04:37:02.940Z,0.70
2023-03-11T04:38:02.938Z,0.70
2023-03-11T04:39:02.999Z,0.70
2023-03-11T04:40:03.041Z,0.70
2023-03-11T04:41:03.013Z,0.60
2023-03-11T04:42:04.118Z,0.60
2023-03-11T04:43:02.906Z,0.60
2023-03-11T04:44:02.984Z,0.60
2023-03-11T04:45:02.966Z,0.60
2023-03-11T04:46:02.862Z,0.60
2023-03-11T04:47:02.980Z,0.60
2023-03-11T04:48:02.937Z,0.60
2023-03-11T04:49:02.997Z,0.60
2023-03-11T04:50:03.099Z,0.50
2023-03-11T04:51:03.139Z,0.60
2023-03-11T04:52:03.180Z,0.60
2023-03-11T04:53:03.274Z,0.60
2023-03-11T04:54:03.412Z,0.60
2023-03-11T04:55:03.419Z,0.60
2023-03-11T04:56:03.364Z,0.60
2023-03-11T04:57:03.360Z,0.60
2023-03-11T04:58:03.328Z,0.60
2023-03-11T04:59:03.282Z,0.60
2023-03-11T05:00:03.326Z,0.60
2023-03-11T05:01:03.375Z,0.60
2023-03-11T05:02:03.335Z,0.60
2023-03-11T05:03:03.419Z,0.60
2023-03-11T05:04:03.375Z,0.60
2023-03-11T05:05:03.463Z,0.60
2023-03-11T05:06:03.618Z,0.60
2023-03-11T05:07:03.525Z,0.60
2023-03-11T05:08:03.584Z,0.60
2023-03-11T05:09:03.610Z,0.60
2023-03-11T05:10:03.583Z,0.60
2023-03-11T05:11:02.607Z,0.60
2023-03-11T05:12:02.605Z,0.60
2023-03-11T05:13:02.714Z,0.60
2023-03-11T05:14:03.593Z,0.60
2023-03-11T05:15:03.520Z,0.60
2023-03-11T05:16:03.596Z,0.60
2023-03-11T05:17:03.582Z,0.60
2023-03-11T05:18:03.582Z,0.60
2023-03-11T05:19:02.683Z,0.60
2023-03-11T05:20:02.716Z,0.60
2023-03-11T05:21:02.713Z,0.60
2023-03-11T05:22:02.740Z,0.60
2023-03-11T05:23:02.844Z,0.60
2023-03-11T05:24:02.730Z,0.60
2023-03-11T05:25:03.415Z,0.60
2023-03-11T05:26:03.482Z,0.60
2023-03-11T05:27:03.585Z,0.60
2023-03-11T05:28:03.557Z,0.60
2023-03-11T05:29:03.602Z,0.60
2023-03-11T05:30:02.667Z,0.60
2023-03-11T05:31:02.880Z,0.60
2023-03-11T05:32:02.749Z,0.60
2023-03-11T05:33:02.700Z,0.60
2023-03-11T05:34:02.720Z,0.60
2023-03-11T05:35:02.701Z,0.60
2023-03-11T05:36:02.713Z,0.60
2023-03-11T05:37:03.253Z,0.60
2023-03-11T05:38:02.784Z,0.60
2023-03-11T05:39:02.796Z,0.60
2023-03-11T05:40:02.719Z,0.60
2023-03-11T05:41:02.871Z,0.60
2023-03-11T05:42:02.830Z,0.60
2023-03-11T05:43:02.971Z,0.60
2023-03-11T05:44:03.297Z,0.60
2023-03-11T05:45:03.417Z,0.60
2023-03-11T05:46:03.357Z,0.50
2023-03-11T05:47:03.462Z,0.60
2023-03-11T05:48:03.477Z,0.60
2023-03-11T05:49:03.476Z,0.60
2023-03-11T05:50:02.967Z,0.60
2023-03-11T05:51:02.983Z,0.60
2023-03-11T05:52:03.100Z,0.50
2023-03-11T05:53:03.174Z,0.60
2023-03-11T05:54:03.306Z,0.60
2023-03-11T05:55:03.266Z,0.60
2023-03-11T05:56:03.315Z,0.60
2023-03-11T05:57:03.373Z,0.50
2023-03-11T05:58:03.419Z,0.50
2023-03-11T05:59:03.443Z,0.50
2023-03-11T06:00:03.535Z,0.50
2023-03-11T06:01:03.454Z,0.50
2023-03-11T06:02:03.518Z,0.50
2023-03-11T06:03:03.550Z,0.50
2023-03-11T06:04:03.682Z,0.50
2023-03-11T06:05:03.663Z,0.50
2023-03-11T06:06:02.762Z,0.50
2023-03-11T06:07:02.906Z,0.50
2023-03-11T06:08:02.805Z,0.50
2023-03-11T06:09:02.910Z,0.60
2023-03-11T06:10:02.927Z,0.50
2023-03-11T06:11:02.949Z,0.60
2023-03-11T06:12:02.997Z,0.60
2023-03-11T06:13:03.003Z,0.60
2023-03-11T06:14:02.930Z,0.50
2023-03-11T06:15:02.983Z,0.60
2023-03-11T06:16:03.019Z,0.60
2023-03-11T06:17:03.043Z,0.60
2023-03-11T06:18:02.898Z,0.60
2023-03-11T06:19:02.748Z,0.60
2023-03-11T06:20:02.782Z,0.60
2023-03-11T06:21:02.782Z,0.60
2023-03-11T06:22:02.832Z,0.60
2023-03-11T06:23:03.018Z,0.60
2023-03-11T06:24:03.067Z,0.60
2023-03-11T06:25:02.950Z,0.60
2023-03-11T06:26:02.906Z,0.60
2023-03-11T06:27:02.950Z,0.60
2023-03-11T06:28:03.010Z,0.60
2023-03-11T06:29:02.872Z,0.60
2023-03-11T06:30:02.879Z,0.60
2023-03-11T06:31:02.887Z,0.60
2023-03-11T06:32:02.931Z,0.60
2023-03-11T06:33:02.854Z,0.60
2023-03-11T06:34:02.903Z,0.60
2023-03-11T06:35:02.866Z,0.60
2023-03-11T06:36:02.885Z,0.60
2023-03-11T06:37:02.817Z,0.60
2023-03-11T06:38:02.774Z,0.60
2023-03-11T06:39:02.836Z,0.60
2023-03-11T06:40:02.771Z,0.60
2023-03-11T06:41:02.712Z,0.60
2023-03-11T06:42:02.834Z,0.60
2023-03-11T06:43:02.745Z,0.60
2023-03-11T06:44:02.667Z,0.60
2023-03-11T06:45:02.777Z,0.60
2023-03-11T06:46:02.869Z,0.60
2023-03-11T06:47:02.788Z,0.60
2023-03-11T06:48:02.865Z,0.60
2023-03-11T06:49:02.837Z,0.60
2023-03-11T06:50:02.958Z,0.60
2023-03-11T06:51:02.925Z,0.60
2023-03-11T06:52:02.829Z,0.60
2023-03-11T06:53:03.234Z,0.70
2023-03-11T06:54:03.221Z,0.60
2023-03-11T06:55:03.146Z,0.70
2023-03-11T06:56:03.339Z,0.70
2023-03-11T06:57:03.462Z,0.70
2023-03-11T06:58:03.402Z,0.70
2023-03-11T06:59:03.457Z,0.70
2023-03-11T07:00:03.456Z,0.70
2023-03-11T07:01:03.609Z,0.70
2023-03-11T07:02:03.600Z,0.70
2023-03-11T07:03:03.529Z,0.70
2023-03-11T07:04:03.590Z,0.70
2023-03-11T07:05:03.567Z,0.70
2023-03-11T07:06:05.557Z,0.70
2023-03-11T07:07:03.672Z,0.80
2023-03-11T07:08:03.614Z,0.80
2023-03-11T07:09:03.614Z,0.70
2023-03-11T07:10:03.484Z,0.70
2023-03-11T07:11:03.667Z,0.80
2023-03-11T07:12:02.818Z,0.70
2023-03-11T07:13:02.944Z,0.80
2023-03-11T07:14:02.898Z,0.80
2023-03-11T07:15:02.878Z,0.80
2023-03-11T07:16:02.920Z,0.80
2023-03-11T07:17:03.004Z,0.80
2023-03-11T07:18:03.032Z,0.80
2023-03-11T07:19:02.842Z,0.80
2023-03-11T07:20:02.910Z,0.80
2023-03-11T07:21:02.777Z,0.80
2023-03-11T07:22:02.841Z,0.80
2023-03-11T07:23:02.962Z,0.80
2023-03-11T07:24:03.058Z,0.80
2023-03-11T07:25:03.048Z,0.80
2023-03-11T07:26:03.117Z,0.80
2023-03-11T07:27:03.595Z,0.80
2023-03-11T07:28:03.544Z,0.80
2023-03-11T07:29:03.478Z,0.80
2023-03-11T07:30:02.674Z,0.90
2023-03-11T07:31:02.624Z,0.90
2023-03-11T07:32:02.737Z,0.90
2023-03-11T07:33:02.691Z,0.90
2023-03-11T07:34:02.712Z,0.90
2023-03-11T07:35:02.834Z,0.90
2023-03-11T07:36:02.799Z,1.00
2023-03-11T07:37:02.925Z,1.00
2023-03-11T07:38:02.880Z,1.00
2023-03-11T07:39:04.108Z,1.00
2023-03-11T07:40:02.934Z,1.00
2023-03-11T07:41:02.970Z,1.10
2023-03-11T07:42:02.880Z,1.10
2023-03-11T07:43:02.919Z,1.10
2023-03-11T07:44:02.914Z,1.10
2023-03-11T07:45:02.841Z,1.10
2023-03-11T07:46:02.782Z,1.10
2023-03-11T07:47:02.645Z,1.10
2023-03-11T07:48:02.703Z,1.20
2023-03-11T07:49:02.788Z,1.20
2023-03-11T07:50:02.829Z,1.20
2023-03-11T07:51:02.781Z,1.20
2023-03-11T07:52:02.731Z,1.20
2023-03-11T07:53:02.793Z,1.20
2023-03-11T07:54:02.873Z,1.20
2023-03-11T07:55:02.919Z,1.30
2023-03-11T07:56:02.944Z,1.30
2023-03-11T07:57:02.937Z,1.30
2023-03-11T07:58:02.847Z,1.30
2023-03-11T07:59:02.995Z,1.30
2023-03-11T08:00:02.849Z,1.40
2023-03-11T08:01:02.779Z,1.40
2023-03-11T08:02:02.856Z,1.40
2023-03-11T08:03:02.777Z,1.40
2023-03-11T08:04:02.719Z,1.40
2023-03-11T08:05:03.141Z,1.40
2023-03-11T08:06:03.253Z,1.40
2023-03-11T08:07:03.270Z,1.40
2023-03-11T08:08:03.244Z,1.40
2023-03-11T08:09:03.280Z,1.40
2023-03-11T08:10:03.324Z,1.50
2023-03-11T08:11:03.428Z,1.50
2023-03-11T08:12:03.332Z,1.50
2023-03-11T08:13:03.465Z,1.60
2023-03-11T08:14:03.420Z,1.60
2023-03-11T08:15:03.462Z,1.70
2023-03-11T08:16:03.628Z,1.70
2023-03-11T08:17:03.594Z,1.80
2023-03-11T08:18:03.509Z,1.80
2023-03-11T08:19:03.567Z,1.80
2023-03-11T08:20:03.525Z,1.90
2023-03-11T08:21:03.634Z,1.90
2023-03-11T08:22:03.614Z,1.90
2023-03-11T08:23:02.725Z,2.00
2023-03-11T08:24:04.116Z,2.00
2023-03-11T08:25:02.643Z,2.00
2023-03-11T08:26:02.622Z,2.00
2023-03-11T08:27:03.594Z,2.00
2023-03-11T08:28:02.688Z,2.00
2023-03-11T08:29:02.687Z,2.00
2023-03-11T08:30:02.634Z,2.00
2023-03-11T08:31:03.620Z,2.00
2023-03-11T08:32:02.877Z,2.00
2023-03-11T08:33:02.896Z,2.10
2023-03-11T08:34:03.533Z,2.10
2023-03-11T08:35:03.527Z,2.10
2023-03-11T08:36:03.617Z,2.10
2023-03-11T08:37:02.737Z,2.10
2023-03-11T08:38:02.892Z,2.00
2023-03-11T08:39:02.981Z,2.00
2023-03-11T08:40:02.946Z,2.00
2023-03-11T08:41:02.885Z,2.00
2023-03-11T08:42:03.027Z,2.00
2023-03-11T08:43:03.092Z,2.00
2023-03-11T08:44:03.198Z,2.00
2023-03-11T08:45:03.146Z,1.90
2023-03-11T08:46:03.260Z,1.90
2023-03-11T08:47:03.354Z,1.90
2023-03-11T08:48:03.306Z,1.90
2023-03-11T08:49:03.304Z,1.90
2023-03-11T08:50:03.375Z,1.90
2023-03-11T08:51:03.315Z,1.90
2023-03-11T08:52:03.316Z,1.90
2023-03-11T08:53:03.392Z,2.00
2023-03-11T08:54:03.351Z,2.00
2023-03-11T08:55:03.298Z,2.10
2023-03-11T08:56:03.349Z,2.20
2023-03-11T08:57:03.350Z,2.30
2023-03-11T08:58:03.337Z,2.30
2023-03-11T08:59:03.319Z,2.30
2023-03-11T09:00:03.356Z,2.30
2023-03-11T09:01:03.340Z,2.40
2023-03-11T09:02:03.344Z,2.40
2023-03-11T09:03:03.383Z,2.40
2023-03-11T09:04:03.323Z,2.40
2023-03-11T09:05:03.393Z,2.40
2023-03-11T09:06:02.729Z,2.30
2023-03-11T09:07:02.757Z,2.30
2023-03-11T09:08:04.938Z,2.20
2023-03-11T09:09:02.809Z,2.20
2023-03-11T09:10:02.848Z,2.20
2023-03-11T09:11:02.874Z,2.20
2023-03-11T09:12:02.910Z,2.20
2023-03-11T09:13:02.882Z,2.20
2023-03-11T09:14:02.824Z,2.20
2023-03-11T09:15:02.924Z,2.20
2023-03-11T09:16:02.901Z,2.20
2023-03-11T09:17:02.952Z,2.20
2023-03-11T09:18:02.948Z,2.20
2023-03-11T09:19:02.850Z,2.20
2023-03-11T09:20:02.915Z,2.20
2023-03-11T09:21:02.871Z,2.20
2023-03-11T09:22:02.813Z,2.20
2023-03-11T09:23:02.819Z,2.20
2023-03-11T09:24:02.768Z,2.20
2023-03-11T09:25:02.836Z,2.20
2023-03-11T09:26:02.763Z,2.20
2023-03-11T09:27:02.865Z,2.20
2023-03-11T09:28:02.930Z,2.20
2023-03-11T09:29:02.920Z,2.20
2023-03-11T09:30:02.909Z,2.20
2023-03-11T09:31:03.056Z,2.20
2023-03-11T09:32:02.913Z,2.20
2023-03-11T09:33:02.879Z,2.30
2023-03-11T09:34:02.892Z,2.30
2023-03-11T09:35:02.976Z,2.30
2023-03-11T09:36:03.016Z,2.40
2023-03-11T09:37:02.995Z,2.40
2023-03-11T09:38:02.937Z,2.40
2023-03-11T09:39:03.011Z,2.40
2023-03-11T09:40:03.069Z,2.40
2023-03-11T09:41:03.043Z,2.40
2023-03-11T09:42:03.077Z,2.40
2023-03-11T09:43:03.082Z,2.40
2023-03-11T09:44:03.150Z,2.40
2023-03-11T09:45:03.089Z,2.40
2023-03-11T09:46:03.201Z,2.40
2023-03-11T09:47:03.318Z,2.40
2023-03-11T09:48:03.274Z,2.40
2023-03-11T09:49:03.139Z,2.40
2023-03-11T09:50:03.203Z,2.50
2023-03-11T09:51:03.281Z,2.50
2023-03-11T09:52:03.152Z,2.50
2023-03-11T09:53:03.255Z,2.50
2023-03-11T09:54:03.270Z,2.50
2023-03-11T09:55:03.253Z,2.50
2023-03-11T09:56:03.270Z,2.50
2023-03-11T09:57:03.270Z,2.50
2023-03-11T09:58:03.234Z,2.50
2023-03-11T09:59:03.339Z,2.50
2023-03-11T10:00:03.394Z,2.50
2023-03-11T10:01:03.479Z,2.50
2023-03-11T10:02:03.585Z,2.50
2023-03-11T10:03:03.700Z,2.50
2023-03-11T10:04:02.634Z,2.50
2023-03-11T10:05:02.656Z,2.50
2023-03-11T10:06:02.712Z,2.50
2023-03-11T10:07:02.640Z,2.50
2023-03-11T10:08:02.746Z,2.50
2023-03-11T10:09:02.820Z,2.50
2023-03-11T10:10:02.868Z,2.50
2023-03-11T10:11:02.912Z,2.40
2023-03-11T10:12:03.025Z,2.40
2023-03-11T10:13:02.971Z,2.40
2023-03-11T10:14:02.867Z,2.40
2023-03-11T10:15:02.840Z,2.40
2023-03-11T10:16:02.886Z,2.50
2023-03-11T10:17:02.886Z,2.50
2023-03-11T10:18:02.879Z,2.50
2023-03-11T10:19:02.907Z,2.60
2023-03-11T10:20:02.806Z,2.60
2023-03-11T10:21:02.803Z,2.60
2023-03-11T10:22:02.729Z,2.60
2023-03-11T10:23:02.859Z,2.60
2023-03-11T10:24:02.732Z,2.60
2023-03-11T10:25:02.819Z,2.60
2023-03-11T10:26:02.846Z,2.60
2023-03-11T10:27:02.800Z,2.50
2023-03-11T10:28:02.846Z,2.50
2023-03-11T10:29:02.709Z,2.50
2023-03-11T10:30:02.835Z,2.50
2023-03-11T10:31:02.913Z,2.50
2023-03-11T10:32:02.891Z,2.50
2023-03-11T10:33:02.846Z,2.50
2023-03-11T10:34:02.953Z,2.50
2023-03-11T10:35:02.984Z,2.50
2023-03-11T10:36:03.033Z,2.50
2023-03-11T10:37:02.960Z,2.40
2023-03-11T10:38:03.093Z,2.40
2023-03-11T10:39:03.121Z,2.50
2023-03-11T10:40:03.070Z,2.50
2023-03-11T10:41:03.066Z,2.50
2023-03-11T10:42:03.038Z,2.50
2023-03-11T10:43:02.965Z,2.50
2023-03-11T10:44:03.057Z,2.50
2023-03-11T10:45:02.976Z,2.50
2023-03-11T10:46:02.995Z,2.50
2023-03-11T10:47:03.038Z,2.50
2023-03-11T10:48:03.030Z,2.50
2023-03-11T10:49:02.980Z,2.50
2023-03-11T10:50:03.033Z,2.50
2023-03-11T10:51:03.072Z,2.50
2023-03-11T10:52:03.063Z,2.50
2023-03-11T10:53:03.012Z,2.50
2023-03-11T10:54:03.081Z,2.50
2023-03-11T10:55:02.929Z,2.50
2023-03-11T10:56:02.882Z,2.50
2023-03-11T10:57:02.944Z,2.60
2023-03-11T10:58:03.045Z,2.60
2023-03-11T10:59:03.048Z,2.60
2023-03-11T11:00:03.159Z,2.60
2023-03-11T11:01:03.233Z,2.50
2023-03-11T11:02:03.175Z,2.50
2023-03-11T11:03:03.105Z,2.50
2023-03-11T11:04:03.173Z,2.50
2023-03-11T11:05:03.183Z,2.50
2023-03-11T11:06:03.289Z,2.50
2023-03-11T11:07:03.371Z,2.50
2023-03-11T11:08:03.548Z,2.50
2023-03-11T11:09:03.533Z,2.50
2023-03-11T11:10:03.494Z,2.40
2023-03-11T11:11:03.502Z,2.40
2023-03-11T11:12:03.473Z,2.40
2023-03-11T11:13:03.401Z,2.40
2023-03-11T11:14:03.410Z,2.30
2023-03-11T11:15:03.399Z,2.30
2023-03-11T11:16:03.459Z,2.30
2023-03-11T11:17:03.492Z,2.30
2023-03-11T11:18:03.567Z,2.30
2023-03-11T11:19:03.569Z,2.30
2023-03-11T11:20:03.503Z,2.30
2023-03-11T11:21:03.591Z,2.30
2023-03-11T11:22:03.540Z,2.30
2023-03-11T11:23:03.502Z,2.30
2023-03-11T11:24:03.460Z,2.20
2023-03-11T11:25:03.481Z,2.20
2023-03-11T11:26:03.487Z,2.20
2023-03-11T11:27:03.555Z,2.20
2023-03-11T11:28:03.534Z,2.10
2023-03-11T11:29:03.571Z,2.10
2023-03-11T11:30:03.552Z,2.10
2023-03-11T11:31:03.823Z,2.10
2023-03-11T11:32:03.682Z,2.10
2023-03-11T11:33:02.681Z,2.10
2023-03-11T11:34:02.674Z,2.10
2023-03-11T11:35:02.785Z,2.10
2023-03-11T11:36:02.811Z,2.10
2023-03-11T11:37:02.860Z,2.10
2023-03-11T11:38:03.007Z,2.20
2023-03-11T11:39:03.049Z,2.20
2023-03-11T11:40:03.119Z,2.20
2023-03-11T11:41:03.129Z,2.20
2023-03-11T11:42:03.079Z,2.20
2023-03-11T11:43:03.090Z,2.20
2023-03-11T11:44:03.050Z,2.20
2023-03-11T11:45:03.095Z,2.20
2023-03-11T11:46:03.100Z,2.20
2023-03-11T11:47:04.813Z,2.20
2023-03-11T11:48:03.124Z,2.20
2023-03-11T11:49:03.103Z,2.20
2023-03-11T11:50:03.113Z,2.30
2023-03-11T11:51:03.128Z,2.30
2023-03-11T11:52:03.238Z,2.30
2023-03-11T11:53:03.109Z,2.30
2023-03-11T11:54:03.108Z,2.30
2023-03-11T11:55:03.206Z,2.30
2023-03-11T11:56:03.197Z,2.30
2023-03-11T11:57:03.256Z,2.30
2023-03-11T11:58:03.165Z,2.30
2023-03-11T11:59:03.243Z,2.30
2023-03-11T12:00:03.284Z,2.40
2023-03-11T12:01:03.297Z,2.40
2023-03-11T12:02:03.264Z,2.40
2023-03-11T12:03:03.378Z,2.40
2023-03-11T12:04:03.377Z,2.40
2023-03-11T12:05:03.370Z,2.40
2023-03-11T12:06:03.454Z,2.40
2023-03-11T12:07:03.381Z,2.50
2023-03-11T12:08:03.443Z,2.50
2023-03-11T12:09:03.392Z,2.50
2023-03-11T12:10:13.081Z,2.50
2023-03-11T12:11:03.383Z,2.50
2023-03-11T12:12:03.361Z,2.50
2023-03-11T12:13:03.384Z,2.50
2023-03-11T12:14:03.402Z,2.60
2023-03-11T12:15:03.369Z,2.60
2023-03-11T12:16:03.530Z,2.60
2023-03-11T12:17:04.294Z,2.60
2023-03-11T12:18:03.396Z,2.60
2023-03-11T12:19:03.383Z,2.60
2023-03-11T12:20:03.442Z,2.60
2023-03-11T12:21:03.455Z,2.60
2023-03-11T12:22:03.479Z,2.60
2023-03-11T12:23:03.518Z,2.60
2023-03-11T12:24:03.490Z,2.60
2023-03-11T12:25:03.571Z,2.60
2023-03-11T12:26:02.640Z,2.60
2023-03-11T12:27:02.718Z,2.60
2023-03-11T12:28:02.852Z,2.60
2023-03-11T12:29:02.935Z,2.60
2023-03-11T12:30:02.922Z,2.60
2023-03-11T12:31:02.913Z,2.60
2023-03-11T12:32:02.910Z,2.60
2023-03-11T12:33:02.830Z,2.60
2023-03-11T12:34:02.805Z,2.60
2023-03-11T12:35:02.881Z,2.60
2023-03-11T12:36:02.827Z,2.70
2023-03-11T12:37:02.848Z,2.70
2023-03-11T12:38:02.984Z,2.70
2023-03-11T12:39:02.859Z,2.70
2023-03-11T12:40:02.921Z,2.70
2023-03-11T12:41:02.839Z,2.70
2023-03-11T12:42:02.854Z,2.70
2023-03-11T12:43:02.961Z,2.70
2023-03-11T12:44:02.905Z,2.70
2023-03-11T12:45:02.935Z,2.60
2023-03-11T12:46:02.953Z,2.60
2023-03-11T12:47:03.044Z,2.60
2023-03-11T12:48:03.008Z,2.60
2023-03-11T12:49:03.045Z,2.60
2023-03-11T12:50:02.963Z,2.60
2023-03-11T12:51:02.998Z,2.60
2023-03-11T12:52:03.037Z,2.60
2023-03-11T12:53:03.152Z,2.50
2023-03-11T12:54:03.055Z,2.50
2023-03-11T12:55:03.162Z,2.50
2023-03-11T12:56:03.052Z,2.50
2023-03-11T12:57:03.110Z,2.50
2023-03-11T12:58:03.072Z,2.40
2023-03-11T12:59:03.167Z,2.40
2023-03-11T13:00:03.146Z,2.40
2023-03-11T13:01:03.068Z,2.40
2023-03-11T13:02:03.145Z,2.40
2023-03-11T13:03:03.049Z,2.40
2023-03-11T13:04:03.102Z,2.40
2023-03-11T13:05:03.128Z,2.40
2023-03-11T13:06:03.123Z,2.30
2023-03-11T13:07:03.088Z,2.40
2023-03-11T13:08:03.065Z,2.30
2023-03-11T13:09:03.097Z,2.30
2023-03-11T13:10:03.194Z,2.30
2023-03-11T13:11:03.146Z,2.30
2023-03-11T13:12:03.212Z,2.30
2023-03-11T13:13:03.352Z,2.30
2023-03-11T13:14:03.286Z,2.40
2023-03-11T13:15:03.311Z,2.40
2023-03-11T13:16:03.440Z,2.40
2023-03-11T13:17:03.368Z,2.40
2023-03-11T13:18:03.494Z,2.40